Time;durP1;ratioP1;P1;durP2;ratioP2;P2;SDS_P1;SDS_P2;PMS_P1;PMS_P2;Temp;Humidity;BMP_temperature;BMP_pressure;BME280_temperature;BME280_humidity;BME280_pressure;Samples;Min_cycle;Max_cycle;Signal;HPM_P1;HPM_P2
2022/09/29 00:02:10;;;;;;;1.60;0.82;;;23.20;51.80;;;;;;5027222;28;20053;-60
2022/09/29 00:04:37;;;;;;;0.73;0.73;;;23.10;51.70;;;;;;5027597;28;20049;-60
2022/09/29 00:07:04;;;;;;;1.23;1.02;;;23.10;51.70;;;;;;5028228;28;20128;-60
2022/09/29 00:09:31;;;;;;;3.33;0.77;;;23.10;51.70;;;;;;5027721;28;20057;-60
2022/09/29 00:11:59;;;;;;;1.10;0.85;;;23.10;51.70;;;;;;5028212;28;20394;-60
2022/09/29 00:14:26;;;;;;;2.92;0.88;;;23.10;51.80;;;;;;5023749;28;20053;-60
2022/09/29 00:16:53;;;;;;;2.25;1.17;;;23.10;51.80;;;;;;5028682;28;20403;-60
2022/09/29 00:19:20;;;;;;;1.40;0.85;;;23.10;51.80;;;;;;5027668;28;20057;-60
2022/09/29 00:21:47;;;;;;;1.17;1.00;;;23.10;51.80;;;;;;5027669;28;20064;-60
2022/09/29 00:24:14;;;;;;;0.75;0.75;;;23.10;51.80;;;;;;5027266;28;20556;-60
2022/09/29 00:26:43;;;;;;;0.93;0.80;;;23.10;51.80;;;;;;5026488;28;20306;-60
2022/09/29 00:29:10;;;;;;;1.10;1.00;;;23.10;51.80;;;;;;5027873;28;20537;-60
2022/09/29 00:31:37;;;;;;;2.25;1.23;;;23.10;51.80;;;;;;5027834;28;20053;-60
2022/09/29 00:34:05;;;;;;;0.88;0.88;;;23.10;51.80;;;;;;5027689;28;20066;-60
2022/09/29 00:36:32;;;;;;;1.25;1.15;;;23.10;51.80;;;;;;5028410;28;20081;-60
2022/09/29 00:38:59;;;;;;;1.10;1.00;;;23.10;51.80;;;;;;5028113;28;20056;-60
2022/09/29 00:41:29;;;;;;;0.80;0.80;;;23.10;51.90;;;;;;5027869;28;20046;-60
2022/09/29 00:44:05;;;;;;;1.30;0.90;;;23.10;51.90;;;;;;5027862;28;20414;-60
2022/09/29 00:46:54;;;;;;;1.00;0.82;;;23.00;51.90;;;;;;5023504;28;20401;-60
2022/09/29 00:49:46;;;;;;;0.77;0.70;;;23.00;51.90;;;;;;5027723;28;20045;-60
2022/09/29 00:52:34;;;;;;;1.15;1.05;;;23.00;51.90;;;;;;5027883;28;20045;-60
2022/09/29 00:55:14;;;;;;;1.25;1.02;;;23.00;51.90;;;;;;5029113;28;20221;-60
2022/09/29 00:57:45;;;;;;;;;;;23.10;52.00;;;;;;5032270;28;20056;-60
2022/09/29 01:00:15;;;;;;;0.80;0.80;;;23.00;52.00;;;;;;5029713;28;20305;-60
2022/09/29 01:02:58;;;;;;;1.10;1.07;;;23.00;52.00;;;;;;5031685;28;20042;-60
2022/09/29 01:05:33;;;;;;;1.35;1.23;;;23.10;52.10;;;;;;5031614;28;20045;-60
2022/09/29 01:08:19;;;;;;;1.23;1.13;;;23.10;52.10;;;;;;5031640;28;20053;-60
2022/09/29 01:10:49;;;;;;;2.05;0.82;;;23.00;52.00;;;;;;5031314;28;20045;-60
2022/09/29 01:13:17;;;;;;;1.38;1.27;;;23.00;52.10;;;;;;5030091;28;20053;-60
2022/09/29 01:15:44;;;;;;;1.25;0.63;;;23.00;52.00;;;;;;5031517;28;20037;-60
2022/09/29 01:18:12;;;;;;;2.72;1.17;;;23.00;52.00;;;;;;5027053;28;20045;-60
2022/09/29 01:20:50;;;;;;;1.08;1.00;;;23.00;52.00;;;;;;5031572;28;20405;-60
2022/09/29 01:23:57;;;;;;;2.10;0.98;;;23.00;52.00;;;;;;5031052;28;20056;-60
2022/09/29 01:27:00;;;;;;;2.83;1.08;;;23.00;51.90;;;;;;5031161;28;20128;-60
2022/09/29 01:30:05;;;;;;;1.00;1.00;;;23.00;51.90;;;;;;5030921;28;20049;-60
2022/09/29 01:32:53;;;;;;;5.03;0.80;;;23.00;51.90;;;;;;5031483;28;20401;-60
2022/09/29 01:35:58;;;;;;;1.10;0.98;;;23.10;51.90;;;;;;5031323;28;20107;-60
2022/09/29 01:38:45;;;;;;;2.55;0.98;;;23.10;51.90;;;;;;5030697;28;20048;-60
2022/09/29 01:41:35;;;;;;;0.98;0.93;;;23.00;51.90;;;;;;5030543;28;20050;-60
2022/09/29 01:44:32;;;;;;;1.17;1.08;;;23.00;51.90;;;;;;5030675;28;20052;-60
2022/09/29 01:47:09;;;;;;;1.15;1.05;;;23.00;51.80;;;;;;5030512;28;20053;-60
2022/09/29 01:49:42;;;;;;;0.95;0.95;;;23.00;52.40;;;;;;5025371;28;20056;-60
2022/09/29 01:52:19;;;;;;;0.90;0.90;;;23.00;51.80;;;;;;5030722;28;20049;-60
2022/09/29 01:55:01;;;;;;;1.50;1.02;;;23.00;51.80;;;;;;5030400;28;20041;-59
2022/09/29 01:57:38;;;;;;;0.80;0.80;;;23.00;51.80;;;;;;5030709;28;20076;-60
2022/09/29 02:00:09;;;;;;;1.40;1.05;;;23.00;51.90;;;;;;5030094;28;20512;-60
2022/09/29 02:02:46;;;;;;;1.20;1.10;;;23.10;51.90;;;;;;5030907;28;20045;-60
2022/09/29 02:05:43;;;;;;;1.65;0.90;;;23.00;51.80;;;;;;5030144;28;20046;-60
2022/09/29 02:08:20;;;;;;;1.30;1.15;;;23.00;51.90;;;;;;5030343;28;20056;-60
2022/09/29 02:11:01;;;;;;;1.33;1.23;;;23.10;51.90;;;;;;5030287;28;20258;-60
2022/09/29 02:13:34;;;;;;;0.82;0.82;;;23.10;51.90;;;;;;5030856;28;20057;-60
2022/09/29 02:16:02;;;;;;;3.40;1.13;;;23.00;51.80;;;;;;5030334;28;20597;-60
2022/09/29 02:18:38;;;;;;;1.33;0.93;;;23.00;51.80;;;;;;5030353;28;20054;-60
2022/09/29 02:21:06;;;;;;;1.05;0.95;;;23.00;51.90;;;;;;5024988;28;20049;-60
2022/09/29 02:23:33;;;;;;;2.97;1.20;;;23.00;51.90;;;;;;5030662;28;20061;-60
2022/09/29 02:26:01;;;;;;;0.65;0.65;;;23.00;51.90;;;;;;5030011;28;20049;-60
2022/09/29 02:28:28;;;;;;;1.77;1.10;;;23.00;51.90;;;;;;5029690;28;20052;-60
2022/09/29 02:30:55;;;;;;;0.95;0.95;;;23.00;51.90;;;;;;5029938;28;20045;-60
2022/09/29 02:33:24;;;;;;;1.20;1.10;;;23.00;51.90;;;;;;5030662;28;20050;-60
2022/09/29 02:36:19;;;;;;;1.02;1.02;;;23.00;51.90;;;;;;5030103;28;20049;-60
2022/09/29 02:39:13;;;;;;;1.17;1.08;;;23.00;51.90;;;;;;5030056;28;20041;-60
2022/09/29 02:42:20;;;;;;;0.98;0.88;;;23.00;51.90;;;;;;5029947;28;20441;-60
2022/09/29 02:45:14;;;;;;;1.67;0.90;;;23.00;51.90;;;;;;5028715;28;20046;-60
2022/09/29 02:47:58;;;;;;;1.23;1.13;;;23.00;51.90;;;;;;5029536;28;20381;-60
2022/09/29 02:50:49;;;;;;;1.75;0.90;;;23.00;51.90;;;;;;5029886;28;20049;-60
2022/09/29 02:53:51;;;;;;;1.02;0.90;;;23.00;51.90;;;;;;5024564;28;20048;-60
2022/09/29 02:56:52;;;;;;;1.65;1.10;;;23.00;52.00;;;;;;5029758;28;20049;-60
2022/09/29 02:59:26;;;;;;;1.23;1.13;;;23.00;52.00;;;;;;5041879;28;20072;-60
2022/09/29 03:01:55;;;;;;;1.75;1.23;;;23.00;52.00;;;;;;5029371;28;20053;-60
2022/09/29 03:04:25;;;;;;;2.15;1.38;;;22.90;52.00;;;;;;5029627;28;20163;-60
2022/09/29 03:06:53;;;;;;;1.00;1.00;;;23.00;52.10;;;;;;5029232;28;20053;-60
2022/09/29 03:09:20;;;;;;;0.90;0.90;;;22.90;52.10;;;;;;5028372;28;20069;-60
2022/09/29 03:11:47;;;;;;;1.17;1.02;;;23.00;52.70;;;;;;5029586;28;20044;-60
2022/09/29 03:14:14;;;;;;;1.40;1.25;;;22.90;52.10;;;;;;5029796;28;20406;-60
2022/09/29 03:16:42;;;;;;;1.08;1.02;;;23.00;52.20;;;;;;5029158;28;20049;-60
2022/09/29 03:19:10;;;;;;;2.05;1.05;;;23.00;52.20;;;;;;5028582;28;20188;-60
2022/09/29 03:21:37;;;;;;;1.10;1.00;;;22.90;52.10;;;;;;5028977;28;20049;-60
2022/09/29 03:24:05;;;;;;;0.82;0.82;;;22.90;52.10;;;;;;5029224;28;20052;-61
2022/09/29 03:26:32;;;;;;;0.98;0.90;;;23.00;52.20;;;;;;5022651;28;20053;-60
2022/09/29 03:28:59;;;;;;;1.17;1.08;;;22.90;52.10;;;;;;5028599;28;20045;-60
2022/09/29 03:31:26;;;;;;;1.27;1.17;;;22.90;52.10;;;;;;5029037;28;20189;-60
2022/09/29 03:33:54;;;;;;;1.80;1.20;;;22.90;52.10;;;;;;5028536;28;20045;-60
2022/09/29 03:36:21;;;;;;;1.10;1.00;;;23.00;52.20;;;;;;5028917;28;20046;-60
2022/09/29 03:38:48;;;;;;;1.05;1.00;;;23.00;52.10;;;;;;5028011;28;20037;-60
2022/09/29 03:41:15;;;;;;;1.40;0.93;;;23.00;52.00;;;;;;5028504;28;20046;-60
2022/09/29 03:43:42;;;;;;;1.50;1.05;;;23.00;52.00;;;;;;5027779;28;20050;-60
2022/09/29 03:46:09;;;;;;;0.80;0.80;;;23.00;52.00;;;;;;5027662;28;20045;-60
2022/09/29 03:48:36;;;;;;;1.38;1.20;;;23.00;52.00;;;;;;5028120;28;20136;-60
2022/09/29 03:51:04;;;;;;;1.65;1.10;;;23.00;52.00;;;;;;5026598;28;20046;-60
2022/09/29 03:53:34;;;;;;;0.98;0.93;;;23.00;52.00;;;;;;5016608;28;20245;-60
2022/09/29 03:56:02;;;;;;;0.93;0.93;;;23.00;52.00;;;;;;5009138;28;20042;-60
2022/09/29 03:58:29;;;;;;;1.23;0.93;;;23.00;52.00;;;;;;5003595;28;20049;-60
2022/09/29 04:00:56;;;;;;;1.20;0.80;;;23.00;52.00;;;;;;5008564;28;20045;-60
2022/09/29 04:03:23;;;;;;;1.25;1.15;;;23.00;52.00;;;;;;5007816;28;20038;-60
2022/09/29 04:05:50;;;;;;;1.33;0.98;;;23.00;52.00;;;;;;5008316;28;20585;-60
2022/09/29 04:08:17;;;;;;;2.95;0.88;;;23.00;52.00;;;;;;5027187;28;20037;-60
2022/09/29 04:10:46;;;;;;;0.68;0.68;;;22.90;51.90;;;;;;5027292;28;20481;-60
2022/09/29 04:13:14;;;;;;;1.20;1.10;;;22.90;51.90;;;;;;5027699;28;20124;-60
2022/09/29 04:15:46;;;;;;;0.75;0.75;;;23.00;52.00;;;;;;5025499;28;20176;-60
2022/09/29 04:18:13;;;;;;;1.25;1.00;;;23.00;52.00;;;;;;5027627;28;20050;-60
2022/09/29 04:20:40;;;;;;;1.05;1.02;;;23.00;52.00;;;;;;5027903;28;20254;-60
2022/09/29 04:23:07;;;;;;;1.30;0.98;;;23.00;52.30;;;;;;5025387;28;20046;-60
2022/09/29 04:25:34;;;;;;;1.15;1.08;;;23.00;52.00;;;;;;5027891;28;20341;-60
2022/09/29 04:28:02;;;;;;;1.00;1.00;;;23.00;52.00;;;;;;5026976;28;20371;-60
2022/09/29 04:30:29;;;;;;;1.48;1.00;;;23.00;52.00;;;;;;5022011;28;20049;-60
2022/09/29 04:32:56;;;;;;;1.00;1.00;;;22.90;52.00;;;;;;5027533;28;20042;-60
2022/09/29 04:35:23;;;;;;;1.20;1.05;;;22.90;52.00;;;;;;5027549;28;20049;-60
2022/09/29 04:37:56;;;;;;;1.10;0.90;;;22.90;52.00;;;;;;5024847;28;20504;-60
2022/09/29 04:40:24;;;;;;;1.63;1.52;;;22.90;52.10;;;;;;5027340;28;20060;-60
2022/09/29 04:42:51;;;;;;;1.20;0.90;;;23.00;52.20;;;;;;5027020;28;20124;-60
2022/09/29 04:45:18;;;;;;;1.27;1.10;;;22.90;52.20;;;;;;5027935;28;20052;-60
2022/09/29 04:47:45;;;;;;;1.60;1.33;;;22.90;52.20;;;;;;5027293;28;20061;-60
2022/09/29 04:50:13;;;;;;;2.38;1.10;;;22.90;52.20;;;;;;5027145;28;20045;-60
2022/09/29 04:52:42;;;;;;;1.65;1.27;;;22.90;52.30;;;;;;5027725;28;20437;-60
2022/09/29 04:55:10;;;;;;;2.33;1.40;;;22.90;52.30;;;;;;5026976;28;20042;-60
2022/09/29 04:57:40;;;;;;;3.08;1.67;;;22.90;52.30;;;;;;5027612;28;20494;-60
2022/09/29 05:00:08;;;;;;;0.83;0.83;;;22.90;52.30;;;;;;5027028;28;20053;-60
2022/09/29 05:02:36;;;;;;;1.42;1.17;;;22.90;52.30;;;;;;5021331;28;20309;-60
2022/09/29 05:05:05;;;;;;;1.20;1.10;;;22.90;52.30;;;;;;5024716;28;20115;-60
2022/09/29 05:07:34;;;;;;;1.55;1.35;;;22.90;52.30;;;;;;5026106;28;20046;-60
2022/09/29 05:10:03;;;;;;;1.05;0.95;;;22.90;52.30;;;;;;5041965;28;20049;-60
2022/09/29 05:12:30;;;;;;;1.13;1.05;;;22.90;52.30;;;;;;5025074;28;20041;-60
2022/09/29 05:14:57;;;;;;;0.80;0.80;;;22.90;52.30;;;;;;5024756;28;20051;-60
2022/09/29 05:17:25;;;;;;;2.60;1.08;;;22.90;52.30;;;;;;5018268;28;20046;-59
2022/09/29 05:19:56;;;;;;;0.80;0.80;;;22.90;52.30;;;;;;5026686;28;20060;-59
2022/09/29 05:22:24;;;;;;;1.10;1.10;;;22.90;52.50;;;;;;5026316;28;20382;-61
2022/09/29 05:24:52;;;;;;;0.77;0.77;;;22.90;52.60;;;;;;5020746;28;20077;-60
2022/09/29 05:27:21;;;;;;;1.50;1.00;;;22.90;52.70;;;;;;5017613;28;20041;-62
2022/09/29 05:29:48;;;;;;;3.08;0.80;;;22.90;52.70;;;;;;5021307;28;20045;-59
2022/09/29 05:32:15;;;;;;;1.17;0.88;;;22.90;52.70;;;;;;5025342;28;20136;-59
2022/09/29 05:34:42;;;;;;;1.48;0.70;;;22.90;52.70;;;;;;5018415;28;20052;-59
2022/09/29 05:37:10;;;;;;;2.58;0.90;;;22.90;52.80;;;;;;5014192;28;20049;-60
2022/09/29 05:39:38;;;;;;;1.92;0.95;;;22.90;53.20;;;;;;5017821;28;20045;-59
2022/09/29 05:42:10;;;;;;;1.33;0.57;;;22.90;52.90;;;;;;5018256;28;20417;-59
2022/09/29 05:44:37;;;;;;;0.90;0.80;;;22.90;52.90;;;;;;5022561;28;20048;-60
2022/09/29 05:47:04;;;;;;;2.75;0.70;;;23.00;52.90;;;;;;5021192;28;20481;-59
2022/09/29 05:49:32;;;;;;;0.60;0.60;;;22.90;52.70;;;;;;5026637;28;20661;-59
2022/09/29 05:51:59;;;;;;;2.30;0.90;;;23.00;52.70;;;;;;5025197;28;20227;-61
2022/09/29 05:54:26;;;;;;;0.63;0.63;;;23.00;52.60;;;;;;5023827;28;20038;-60
2022/09/29 05:56:53;;;;;;;1.00;1.00;;;23.00;52.40;;;;;;5022853;28;20497;-60
2022/09/29 05:59:20;;;;;;;1.58;0.90;;;23.00;52.30;;;;;;5022498;28;20068;-60
2022/09/29 06:01:48;;;;;;;1.52;0.90;;;23.00;52.20;;;;;;5023002;28;20536;-61
2022/09/29 06:04:16;;;;;;;1.33;0.63;;;23.00;52.20;;;;;;5020879;28;20068;-61
2022/09/29 06:06:43;;;;;;;1.00;0.55;;;23.10;52.20;;;;;;5015277;28;20112;-60
2022/09/29 06:09:10;;;;;;;1.20;0.70;;;23.10;52.40;;;;;;5023132;28;20064;-62
2022/09/29 06:11:37;;;;;;;0.98;0.75;;;23.10;52.60;;;;;;5028867;28;20168;-60
2022/09/29 06:14:05;;;;;;;0.88;0.57;;;23.10;52.90;;;;;;5024750;28;20045;-60
2022/09/29 06:16:33;;;;;;;1.05;0.70;;;23.10;53.20;;;;;;5023225;28;20137;-62
2022/09/29 06:19:01;;;;;;;3.33;0.75;;;23.20;53.30;;;;;;5024073;28;20139;-62
2022/09/29 06:21:29;;;;;;;2.30;0.77;;;23.20;53.30;;;;;;5042774;28;20075;-63
2022/09/29 06:23:57;;;;;;;5.00;1.20;;;23.20;53.20;;;;;;5022010;28;20104;-60
2022/09/29 06:26:26;;;;;;;3.08;1.30;;;23.30;53.40;;;;;;5023692;28;20060;-60
2022/09/29 06:28:54;;;;;;;3.22;0.95;;;23.30;53.40;;;;;;5021253;28;20072;-60
2022/09/29 06:31:24;;;;;;;2.58;0.90;;;23.30;53.50;;;;;;5020926;28;20045;-60
2022/09/29 06:33:52;;;;;;;8.55;1.02;;;23.40;53.50;;;;;;5021336;28;20057;-61
2022/09/29 06:39:12;;;;;;;7.97;0.95;;;23.40;53.30;;;;;;5016933;28;20053;-60
2022/09/29 06:41:40;;;;;;;4.60;1.15;;;23.50;53.30;;;;;;5022757;28;20081;-60
2022/09/29 06:44:08;;;;;;;1.85;0.93;;;23.50;53.20;;;;;;5013419;28;20053;-61
2022/09/29 06:46:36;;;;;;;3.78;1.05;;;23.50;53.10;;;;;;5023166;28;20053;-63
2022/09/29 06:49:03;;;;;;;2.72;0.98;;;23.50;53.00;;;;;;5024580;28;20045;-60
2022/09/29 06:51:30;;;;;;;7.43;0.73;;;23.50;53.00;;;;;;5025166;28;20482;-58
2022/09/29 06:54:13;;;;;;;2.85;0.90;;;23.50;52.80;;;;;;5023826;28;20102;-60
2022/09/29 06:56:41;;;;;;;6.32;1.13;;;23.60;52.80;;;;;;5018010;28;20060;-60
2022/09/29 06:59:08;;;;;;;5.60;1.00;;;23.60;52.70;;;;;;5022145;28;20064;-59
2022/09/29 07:01:35;;;;;;;4.30;0.77;;;23.60;52.60;;;;;;5018629;28;20808;-59
2022/09/29 07:04:02;;;;;;;10.45;1.23;;;23.60;52.50;;;;;;5016356;28;20111;-60
2022/09/29 07:06:30;;;;;;;6.93;1.30;;;23.60;52.50;;;;;;5016402;28;20383;-61
2022/09/29 07:08:58;;;;;;;3.55;0.80;;;23.60;52.50;;;;;;5017652;28;20454;-61
2022/09/29 07:11:27;;;;;;;8.05;1.10;;;23.70;52.50;;;;;;5017471;28;20057;-61
2022/09/29 07:13:55;;;;;;;4.03;0.75;;;23.70;52.50;;;;;;5032192;28;20074;-61
2022/09/29 07:16:25;;;;;;;0.80;0.80;;;23.70;52.40;;;;;;5018470;28;20045;-62
2022/09/29 07:18:52;;;;;;;4.72;1.15;;;23.70;52.50;;;;;;5019038;28;20080;-62
2022/09/29 07:21:20;;;;;;;3.00;0.80;;;23.70;52.40;;;;;;5017742;28;20053;-61
2022/09/29 07:23:47;;;;;;;3.05;0.90;;;23.70;52.30;;;;;;5017843;28;20466;-62
2022/09/29 07:26:18;;;;;;;4.28;1.00;;;23.80;52.30;;;;;;5018312;28;20566;-62
2022/09/29 07:28:45;;;;;;;2.78;1.02;;;23.80;52.20;;;;;;5018471;28;20141;-62
2022/09/29 07:31:16;;;;;;;4.10;1.25;;;23.90;52.10;;;;;;5014883;28;20501;-62
2022/09/29 07:33:45;;;;;;;2.33;1.10;;;24.00;52.10;;;;;;5015920;28;20060;-63
2022/09/29 07:36:14;;;;;;;3.90;1.63;;;24.00;51.90;;;;;;5018707;28;21138;-61
2022/09/29 07:38:41;;;;;;;3.40;1.30;;;24.10;51.70;;;;;;5017888;28;20056;-60
2022/09/29 07:41:10;;;;;;;1.20;0.70;;;24.10;51.50;;;;;;5012358;28;20056;-60
2022/09/29 07:43:38;;;;;;;3.55;0.95;;;24.10;51.30;;;;;;5015911;28;20057;-60
2022/09/29 07:46:06;;;;;;;3.30;0.90;;;24.20;51.40;;;;;;5019823;28;20057;-60
2022/09/29 07:48:35;;;;;;;5.45;1.10;;;24.20;51.40;;;;;;5001049;28;20045;-61
2022/09/29 07:51:09;;;;;;;1.98;1.42;;;24.20;51.50;;;;;;5021719;28;20053;-60
2022/09/29 07:53:37;;;;;;;11.25;0.85;;;24.20;51.50;;;;;;5018822;28;20045;-59
2022/09/29 07:56:07;;;;;;;2.47;1.00;;;24.30;51.50;;;;;;5017168;28;20414;-62
2022/09/29 07:58:34;;;;;;;2.08;0.65;;;24.30;51.50;;;;;;5021566;28;20194;-60
2022/09/29 08:01:04;;;;;;;1.95;0.93;;;24.30;51.40;;;;;;5019987;28;20061;-60
2022/09/29 08:03:31;;;;;;;3.40;0.98;;;24.30;51.80;;;;;;5020553;28;20135;-62
2022/09/29 08:05:58;;;;;;;5.28;1.30;;;24.50;51.10;;;;;;5017951;28;20454;-61
2022/09/29 08:08:26;;;;;;;2.33;0.90;;;24.50;50.90;;;;;;5018044;28;20551;-61
2022/09/29 08:11:01;;;;;;;4.95;1.02;;;24.50;50.70;;;;;;5016493;28;20049;-61
2022/09/29 08:13:30;;;;;;;1.40;0.88;;;24.60;50.60;;;;;;5011100;28;20397;-60
2022/09/29 08:15:58;;;;;;;4.93;0.88;;;24.60;50.50;;;;;;5017863;28;20053;-60
2022/09/29 08:18:27;;;;;;;2.30;1.02;;;24.60;50.30;;;;;;5018566;28;20136;-61
2022/09/29 08:20:54;;;;;;;4.55;0.70;;;24.60;50.30;;;;;;5014880;28;20057;-60
2022/09/29 08:23:25;;;;;;;5.53;1.33;;;24.60;50.20;;;;;;5018258;28;20049;-60
2022/09/29 08:26:04;;;;;;;5.68;1.70;;;24.70;50.10;;;;;;5013685;28;20485;-61
2022/09/29 08:28:34;;;;;;;12.95;1.15;;;24.70;50.10;;;;;;5017613;28;20060;-59
2022/09/29 08:31:03;;;;;;;5.07;1.10;;;24.70;50.00;;;;;;5015516;28;20402;-61
2022/09/29 08:33:31;;;;;;;6.90;1.20;;;24.80;49.90;;;;;;5018613;28;20072;-61
2022/09/29 08:36:00;;;;;;;5.15;1.42;;;24.80;49.80;;;;;;5018340;28;20133;-62
2022/09/29 08:38:27;;;;;;;4.78;1.40;;;24.90;49.80;;;;;;5017970;28;20057;-61
2022/09/29 08:40:56;;;;;;;4.57;1.35;;;24.90;49.60;;;;;;5014411;28;20049;-63
2022/09/29 08:43:33;;;;;;;5.65;1.20;;;24.90;49.60;;;;;;5022362;28;20061;-61
2022/09/29 08:46:06;;;;;;;6.32;1.50;;;24.90;49.60;;;;;;5013226;28;20064;-62
2022/09/29 08:48:42;;;;;;;4.20;1.45;;;24.90;49.60;;;;;;5021784;28;20082;-62
2022/09/29 08:51:38;;;;;;;4.95;1.27;;;24.90;49.60;;;;;;5016337;28;20045;-64
2022/09/29 08:54:30;;;;;;;1.77;1.17;;;24.90;49.80;;;;;;5012906;28;20497;-64
2022/09/29 08:57:14;;;;;;;2.83;1.42;;;24.90;49.90;;;;;;5018668;28;20044;-63
2022/09/29 08:59:41;;;;;;;4.10;1.38;;;24.90;50.10;;;;;;5014844;28;20056;-63
2022/09/29 09:02:38;;;;;;;3.15;0.90;;;24.90;50.30;;;;;;5021193;28;20041;-62
2022/09/29 09:05:32;;;;;;;7.20;1.17;;;24.90;50.40;;;;;;5018158;28;20447;-62
2022/09/29 09:08:29;;;;;;;5.63;1.02;;;24.90;50.50;;;;;;5020092;28;20068;-61
2022/09/29 09:11:09;;;;;;;2.15;0.95;;;24.90;50.60;;;;;;5015597;28;20522;-64
2022/09/29 09:14:09;;;;;;;4.18;1.02;;;24.90;50.70;;;;;;5015771;28;20136;-61
2022/09/29 09:16:53;;;;;;;4.30;2.08;;;24.90;50.40;;;;;;5042130;28;20053;-61
2022/09/29 09:19:54;;;;;;;5.07;1.67;;;25.00;49.90;;;;;;5019861;28;20049;-61
2022/09/29 09:22:45;;;;;;;8.23;1.38;;;25.10;49.70;;;;;;5017693;28;20061;-61
2022/09/29 09:25:27;;;;;;;5.30;1.67;;;25.10;49.70;;;;;;5018412;28;20061;-60
2022/09/29 09:28:16;;;;;;;4.93;1.20;;;25.10;49.60;;;;;;5020239;28;20397;-60
2022/09/29 09:30:59;;;;;;;3.42;2.05;;;25.10;49.60;;;;;;5024322;28;20053;-60
2022/09/29 09:33:46;;;;;;;2.92;1.55;;;25.10;49.70;;;;;;5021075;28;20127;-60
2022/09/29 09:36:40;;;;;;;8.15;1.60;;;25.10;49.90;;;;;;5026120;28;20134;-60
2022/09/29 09:39:20;;;;;;;7.47;1.80;;;25.10;49.90;;;;;;5019825;28;20052;-63
2022/09/29 09:41:51;;;;;;;4.65;2.15;;;25.10;50.10;;;;;;5018384;28;20056;-61
2022/09/29 09:44:41;;;;;;;2.85;1.55;;;25.10;50.10;;;;;;5020636;28;20417;-61
2022/09/29 09:47:33;;;;;;;1.58;1.48;;;25.10;50.00;;;;;;5018371;28;20057;-60
2022/09/29 09:50:12;;;;;;;5.22;1.75;;;25.10;50.10;;;;;;5011680;28;20063;-60
2022/09/29 09:53:00;;;;;;;4.30;1.75;;;25.10;50.20;;;;;;5017048;28;20049;-61
2022/09/29 09:55:29;;;;;;;3.00;1.98;;;25.10;50.20;;;;;;5015271;28;20049;-61
2022/09/29 09:58:20;;;;;;;12.07;2.53;;;25.00;50.00;;;;;;5014120;28;20414;-62
2022/09/29 10:00:53;;;;;;;6.00;1.42;;;25.00;50.10;;;;;;5009807;28;20053;-64
2022/09/29 10:03:20;;;;;;;4.35;1.27;;;25.00;50.20;;;;;;5010477;28;20080;-60
2022/09/29 10:05:48;;;;;;;5.55;1.65;;;25.00;50.30;;;;;;5017357;28;21431;-61
2022/09/29 10:08:37;;;;;;;9.40;1.40;;;24.90;50.30;;;;;;5017344;28;20051;-61
2022/09/29 10:11:26;;;;;;;8.40;1.80;;;24.90;50.40;;;;;;5015850;28;20098;-62
2022/09/29 10:14:15;;;;;;;6.25;1.50;;;24.90;50.50;;;;;;5016950;28;20518;-61
2022/09/29 10:17:05;;;;;;;7.63;1.65;;;24.90;50.60;;;;;;5022058;28;20053;-63
2022/09/29 10:19:57;;;;;;;5.15;1.27;;;24.90;50.70;;;;;;5024127;28;20509;-63
2022/09/29 10:22:26;;;;;;;6.45;1.52;;;24.90;50.60;;;;;;5018105;28;20067;-64
2022/09/29 10:25:18;;;;;;;4.28;1.35;;;24.90;50.40;;;;;;5026482;28;20729;-62
2022/09/29 10:27:52;;;;;;;5.40;1.67;;;24.90;50.30;;;;;;5020413;28;20064;-63
2022/09/29 10:30:23;;;;;;;5.80;1.63;;;24.90;50.20;;;;;;5023920;28;20129;-63
2022/09/29 10:32:58;;;;;;;6.47;1.70;;;24.90;50.10;;;;;;5024736;28;20045;-63
2022/09/29 10:35:35;;;;;;;1.88;1.40;;;24.90;50.10;;;;;;5023943;28;20045;-63
2022/09/29 10:38:15;;;;;;;2.10;1.52;;;24.90;50.10;;;;;;5022449;28;20045;-63
2022/09/29 10:40:58;;;;;;;8.20;1.27;;;24.90;50.10;;;;;;5013524;28;20056;-62
2022/09/29 10:43:31;;;;;;;2.80;1.35;;;24.90;50.10;;;;;;5016114;28;20298;-63
2022/09/29 10:45:58;;;;;;;1.70;1.20;;;24.90;50.10;;;;;;5018120;28;20060;-62
2022/09/29 10:48:26;;;;;;;2.45;1.50;;;25.00;50.10;;;;;;5018291;28;20122;-62
2022/09/29 10:50:58;;;;;;;3.50;1.88;;;25.00;50.10;;;;;;5017278;28;20057;-61
2022/09/29 10:53:37;;;;;;;3.92;1.73;;;25.00;50.10;;;;;;5015742;28;20103;-61
2022/09/29 10:56:21;;;;;;;4.10;1.58;;;25.00;50.10;;;;;;5010598;28;20568;-61
2022/09/29 10:59:00;;;;;;;1.83;1.50;;;25.00;50.10;;;;;;5018412;28;20045;-60
2022/09/29 11:01:42;;;;;;;4.28;2.20;;;25.10;50.20;;;;;;5022714;28;20481;-62
2022/09/29 11:04:30;;;;;;;3.40;1.40;;;25.10;50.10;;;;;;5020226;28;20053;-61
2022/09/29 11:07:09;;;;;;;5.95;2.00;;;25.10;50.20;;;;;;5020088;28;20135;-61
2022/09/29 11:09:39;;;;;;;4.10;1.73;;;25.10;50.20;;;;;;5020143;28;20038;-61
2022/09/29 11:12:37;;;;;;;4.03;2.08;;;25.10;50.20;;;;;;5021823;28;20084;-61
2022/09/29 11:15:27;;;;;;;3.33;1.60;;;25.10;50.20;;;;;;5037833;28;20136;-61
2022/09/29 11:17:55;;;;;;;4.68;1.77;;;25.10;50.10;;;;;;5021799;28;20061;-61
2022/09/29 11:20:30;;;;;;;7.78;1.92;;;25.10;50.10;;;;;;5023145;28;20041;-61
2022/09/29 11:23:14;;;;;;;3.20;1.67;;;25.20;50.10;;;;;;5047204;28;20076;-61
2022/09/29 11:26:09;;;;;;;6.10;2.15;;;25.20;50.10;;;;;;5017877;28;21275;-60
2022/09/29 11:29:03;;;;;;;4.47;1.70;;;25.30;50.00;;;;;;5021889;28;20050;-60
2022/09/29 11:32:07;;;;;;;2.70;1.70;;;25.40;50.20;;;;;;5019488;28;20516;-61
2022/09/29 11:34:58;;;;;;;6.45;1.77;;;25.40;50.20;;;;;;5019788;28;20053;-61
2022/09/29 11:37:56;;;;;;;3.10;1.60;;;25.40;50.10;;;;;;5022820;28;20057;-61
2022/09/29 11:40:47;;;;;;;4.70;1.80;;;25.40;50.20;;;;;;5019524;28;20054;-63
2022/09/29 11:43:45;;;;;;;2.63;1.48;;;25.40;50.10;;;;;;5023910;28;20151;-62
2022/09/29 11:46:30;;;;;;;3.22;2.00;;;25.40;49.90;;;;;;5020086;28;20053;-64
2022/09/29 11:49:36;;;;;;;3.08;1.55;;;25.50;50.00;;;;;;5023620;28;20059;-63
2022/09/29 11:52:37;;;;;;;1.95;1.48;;;25.50;49.90;;;;;;5018989;28;20046;-62
2022/09/29 11:55:37;;;;;;;2.08;1.30;;;25.50;49.90;;;;;;5025016;28;20414;-63
2022/09/29 11:58:40;;;;;;;4.18;1.52;;;25.60;49.80;;;;;;5022079;28;20049;-62
2022/09/29 12:01:45;;;;;;;1.20;1.10;;;25.60;49.90;;;;;;5042031;28;20071;-63
2022/09/29 12:04:52;;;;;;;2.50;1.40;;;25.50;50.50;;;;;;5019340;28;20041;-61
2022/09/29 12:07:56;;;;;;;2.28;1.55;;;25.50;50.30;;;;;;5022676;28;20041;-62
2022/09/29 12:10:51;;;;;;;3.03;1.58;;;25.50;50.30;;;;;;5020979;28;20085;-61
2022/09/29 12:13:42;;;;;;;3.42;1.17;;;25.40;50.40;;;;;;5025070;28;20509;-62
2022/09/29 12:16:20;;;;;;;1.95;1.23;;;25.40;50.50;;;;;;5020724;28;20091;-63
2022/09/29 12:18:51;;;;;;;2.97;1.80;;;25.40;50.60;;;;;;5046569;28;20827;-61
2022/09/29 12:21:32;;;;;;;3.00;1.27;;;25.40;50.60;;;;;;5023100;28;20072;-62
2022/09/29 12:24:02;;;;;;;2.40;1.55;;;25.40;50.60;;;;;;5019303;28;20049;-61
2022/09/29 12:26:30;;;;;;;2.05;1.27;;;25.30;50.50;;;;;;5024388;28;20051;-62
2022/09/29 12:29:04;;;;;;;2.47;1.30;;;25.30;50.80;;;;;;5020085;28;20116;-63
2022/09/29 12:31:48;;;;;;;3.20;1.50;;;25.30;51.00;;;;;;5020386;28;20053;-63
2022/09/29 12:34:25;;;;;;;2.28;1.42;;;25.30;51.00;;;;;;5014894;28;20045;-63
2022/09/29 12:37:11;;;;;;;1.40;1.27;;;25.30;51.00;;;;;;5033012;28;20057;-62
2022/09/29 12:39:58;;;;;;;1.75;1.20;;;25.30;50.90;;;;;;5034154;28;20050;-62
2022/09/29 12:42:59;;;;;;;1.98;1.30;;;25.30;51.10;;;;;;5019088;28;20064;-61
2022/09/29 12:45:59;;;;;;;1.27;1.15;;;25.30;51.10;;;;;;5024566;28;20041;-63
2022/09/29 12:48:55;;;;;;;3.70;1.20;;;25.30;51.00;;;;;;5036276;28;20054;-62
2022/09/29 12:51:32;;;;;;;7.22;1.40;;;25.30;51.10;;;;;;5017762;28;20520;-62
2022/09/29 12:54:40;;;;;;;3.38;1.45;;;25.30;51.00;;;;;;5021327;28;20486;-62
2022/09/29 12:57:15;;;;;;;1.33;1.23;;;25.40;51.10;;;;;;5026479;28;20065;-60
2022/09/29 13:00:04;;;;;;;1.73;1.13;;;25.40;50.80;;;;;;5023512;28;20061;-59
2022/09/29 13:03:11;;;;;;;1.48;1.10;;;25.40;50.70;;;;;;5026609;28;20721;-64
2022/09/29 13:06:13;;;;;;;3.10;1.20;;;25.50;50.60;;;;;;5048828;28;20061;-63
2022/09/29 13:09:03;;;;;;;2.17;0.90;;;25.50;50.60;;;;;;5029367;28;20099;-62
2022/09/29 13:12:09;;;;;;;3.95;1.25;;;25.50;50.60;;;;;;5028315;28;20054;-62
2022/09/29 13:15:16;;;;;;;2.08;1.50;;;25.50;50.60;;;;;;5025033;28;20052;-64
2022/09/29 13:18:16;;;;;;;1.35;1.25;;;25.50;50.50;;;;;;5023321;28;20061;-62
2022/09/29 13:21:04;;;;;;;2.58;1.48;;;25.50;50.50;;;;;;5026900;28;20044;-61
2022/09/29 13:23:53;;;;;;;3.85;1.10;;;25.50;50.60;;;;;;5025675;28;20053;-61
2022/09/29 13:26:49;;;;;;;3.28;1.45;;;25.50;50.60;;;;;;5025445;28;20050;-61
2022/09/29 13:29:22;;;;;;;3.00;1.40;;;25.50;50.60;;;;;;5026120;28;20060;-62
2022/09/29 13:31:53;;;;;;;2.38;1.20;;;25.50;50.70;;;;;;5023669;28;20037;-62
2022/09/29 13:34:32;;;;;;;3.15;2.10;;;25.50;50.70;;;;;;5024109;28;20068;-62
2022/09/29 13:37:16;;;;;;;6.43;1.48;;;25.50;50.80;;;;;;5023016;28;20056;-62
2022/09/29 13:39:53;;;;;;;4.95;1.10;;;25.50;50.80;;;;;;5020887;28;20066;-62